Time;durP1;ratioP1;P1;durP2;ratioP2;P2;SDS_P1;SDS_P2;PMS_P1;PMS_P2;Temp;Humidity;BMP_temperature;BMP_pressure;BME280_temperature;BME280_humidity;BME280_pressure;Samples;Min_cycle;Max_cycle;Signal;HPM_P1;HPM_P2
2023/07/14 00:01:17;;;;;;;3.33;2.33;;;;;;;;;;5052811;28;20440;-48
2023/07/14 00:03:44;;;;;;;3.80;2.20;;;19.60;85.50;;;;;;5052357;28;20435;-49
2023/07/14 00:06:12;;;;;;;4.93;3.10;;;19.60;85.70;;;;;;5052248;28;20480;-49
2023/07/14 00:08:40;;;;;;;2.90;2.40;;;;;;;;;;5051948;28;20438;-48
2023/07/14 00:11:11;;;;;;;5.53;2.63;;;;;;;;;;5052389;28;20804;-48
2023/07/14 00:13:38;;;;;;;3.07;2.10;;;;;;;;;;5052038;28;20449;-49
2023/07/14 00:16:12;;;;;;;3.00;2.53;;;19.50;86.00;;;;;;5052198;28;20496;-49
2023/07/14 00:18:38;;;;;;;3.70;2.40;;;19.40;85.90;;;;;;5052087;28;20427;-49
2023/07/14 00:21:05;;;;;;;6.20;2.43;;;;;;;;;;5052028;28;20430;-49
2023/07/14 00:23:32;;;;;;;5.53;2.90;;;19.40;86.20;;;;;;5052066;28;20450;-48
2023/07/14 00:25:59;;;;;;;4.40;2.80;;;;;;;;;;5052190;28;20817;-49
2023/07/14 00:28:26;;;;;;;4.53;2.77;;;19.30;86.30;;;;;;5051647;28;20433;-49
2023/07/14 00:30:52;;;;;;;3.90;2.43;;;19.30;86.50;;;;;;5052055;28;20445;-48
2023/07/14 00:33:20;;;;;;;3.20;2.43;;;19.30;86.30;;;;;;5052102;28;20462;-48
2023/07/14 00:35:48;;;;;;;4.03;2.63;;;;;;;;;;5051888;28;20496;-48
2023/07/14 00:38:14;;;;;;;3.70;2.20;;;19.20;86.70;;;;;;5050378;28;20495;-49
2023/07/14 00:40:44;;;;;;;3.30;2.10;;;19.10;86.90;;;;;;5050546;28;20446;-49
2023/07/14 00:43:17;;;;;;;3.50;2.30;;;18.80;86.70;;;;;;5050565;28;20540;-48
2023/07/14 00:45:45;;;;;;;3.83;2.47;;;18.90;87.10;;;;;;5052028;28;20635;-48
2023/07/14 00:48:15;;;;;;;3.43;2.20;;;;;;;;;;5051357;28;20485;-48
2023/07/14 00:50:49;;;;;;;4.63;2.27;;;19.10;87.70;;;;;;5050531;28;20540;-49
2023/07/14 00:53:20;;;;;;;4.50;3.07;;;;;;;;;;5050473;28;20485;-48
2023/07/14 00:55:49;;;;;;;3.23;2.70;;;19.00;87.90;;;;;;5050555;28;20463;-49
2023/07/14 00:58:18;;;;;;;7.57;6.27;;;;;;;;;;5050387;28;20460;-48
2023/07/14 01:01:02;;;;;;;4.40;2.93;;;;;;;;;;5051699;28;20448;-48
2023/07/14 01:03:29;;;;;;;3.60;2.43;;;;;;;;;;5051554;28;20461;-48
2023/07/14 01:05:58;;;;;;;3.33;2.67;;;;;;;;;;5050489;28;20983;-48
2023/07/14 01:08:26;;;;;;;6.03;2.73;;;;;;;;;;5051874;28;20470;-48
2023/07/14 01:10:54;;;;;;;5.17;2.50;;;18.80;89.00;;;;;;5056124;28;20566;-48
2023/07/14 01:13:21;;;;;;;5.00;2.80;;;18.90;89.10;;;;;;5054985;28;20474;-47
2023/07/14 01:15:57;;;;;;;4.30;3.00;;;;;;;;;;5055155;28;20458;-47
2023/07/14 01:18:23;;;;;;;4.80;2.33;;;18.80;89.70;;;;;;5056533;28;20462;-48
2023/07/14 01:20:50;;;;;;;3.83;3.20;;;;;;;;;;5056926;28;20434;-47
2023/07/14 01:23:31;;;;;;;4.20;3.43;;;;;;;;;;5057032;28;21053;-48
2023/07/14 01:26:12;;;;;;;2.90;2.47;;;18.70;90.00;;;;;;5057073;28;20438;-47
2023/07/14 01:28:41;;;;;;;4.67;3.27;;;;;;;;;;5055372;28;20426;-47
2023/07/14 01:31:11;;;;;;;4.30;2.80;;;;;;;;;;5055917;28;20454;-49
2023/07/14 01:33:38;;;;;;;4.10;3.03;;;18.60;90.30;;;;;;5056842;28;21032;-48
2023/07/14 01:36:06;;;;;;;3.50;2.53;;;18.60;90.40;;;;;;5055615;28;20463;-48
2023/07/14 01:38:33;;;;;;;4.30;2.80;;;;;;;;;;5055557;28;20455;-47
2023/07/14 01:41:01;;;;;;;4.70;3.20;;;18.50;90.60;;;;;;5053960;28;20463;-49
2023/07/14 01:43:28;;;;;;;4.50;2.87;;;18.50;90.70;;;;;;5055120;28;20792;-48
2023/07/14 01:46:00;;;;;;;5.10;3.43;;;18.50;90.80;;;;;;5055310;28;20451;-48
2023/07/14 01:48:29;;;;;;;4.47;3.57;;;;;;;;;;5053203;28;20484;-48
2023/07/14 01:51:00;;;;;;;4.40;2.60;;;18.40;91.10;;;;;;5055112;28;20446;-48
2023/07/14 01:53:30;;;;;;;3.87;3.20;;;;;;;;;;5054830;28;20464;-48
2023/07/14 01:55:59;;;;;;;5.50;3.37;;;;;;;;;;5055195;28;20441;-47
2023/07/14 01:58:31;;;;;;;5.33;3.20;;;18.30;91.30;;;;;;5053256;28;20953;-48
2023/07/14 02:01:00;;;;;;;5.50;3.30;;;;;;;;;;5053725;28;20968;-47
2023/07/14 02:03:31;;;;;;;3.30;3.00;;;;;;;;;;5053247;28;21091;-48
2023/07/14 02:05:58;;;;;;;4.60;3.10;;;;;;;;;;5053599;28;20449;-46
2023/07/14 02:08:25;;;;;;;3.83;2.90;;;18.30;91.70;;;;;;5052967;28;20825;-48
2023/07/14 02:10:52;;;;;;;5.03;3.30;;;18.30;91.70;;;;;;5053387;28;20431;-48
2023/07/14 02:13:20;;;;;;;4.70;3.50;;;;;;;;;;5054026;28;20479;-48
2023/07/14 02:15:47;;;;;;;5.13;3.77;;;18.30;92.00;;;;;;5055380;28;20454;-49
2023/07/14 02:18:21;;;;;;;4.40;3.40;;;18.20;92.00;;;;;;5055211;28;20445;-47
2023/07/14 02:20:48;;;;;;;6.70;3.97;;;;;;;;;;5055322;28;20437;-47
2023/07/14 02:23:17;;;;;;;4.70;3.70;;;;;;;;;;5055429;28;20484;-46
2023/07/14 02:25:46;;;;;;;4.40;3.20;;;18.10;92.30;;;;;;5057199;28;20525;-47
2023/07/14 02:28:14;;;;;;;6.17;3.53;;;18.30;92.50;;;;;;5054854;28;20889;-47
2023/07/14 02:30:45;;;;;;;4.57;3.43;;;;;;;;;;5056692;28;20433;-47
2023/07/14 02:33:14;;;;;;;5.63;4.27;;;;;;;;;;5054963;28;20476;-48
2023/07/14 02:35:48;;;;;;;4.57;3.57;;;18.40;92.70;;;;;;5054732;28;20438;-48
2023/07/14 02:38:16;;;;;;;8.30;3.77;;;;;;;;;;5055206;28;20433;-48
2023/07/14 02:40:46;;;;;;;6.67;4.30;;;;;;;;;;5053795;28;20464;-48
2023/07/14 02:43:16;;;;;;;5.27;4.00;;;18.20;92.90;;;;;;5054618;28;20464;-47
2023/07/14 02:45:49;;;;;;;4.73;4.23;;;18.40;93.10;;;;;;5054456;28;20429;-47
2023/07/14 02:48:23;;;;;;;4.87;4.10;;;18.50;93.40;;;;;;5054527;28;20898;-46
2023/07/14 02:50:51;;;;;;;5.20;4.00;;;;;;;;;;5053227;28;20449;-50
2023/07/14 02:53:18;;;;;;;4.53;3.50;;;18.20;93.30;;;;;;5053120;28;21096;-47
2023/07/14 02:55:45;;;;;;;7.30;4.63;;;;;;;;;;5053197;28;20765;-47
2023/07/14 02:58:11;;;;;;;10.50;3.70;;;18.20;93.60;;;;;;5054054;28;20444;-48
2023/07/14 03:00:38;;;;;;;4.57;4.00;;;18.20;93.70;;;;;;5054439;28;20433;-48
2023/07/14 03:03:05;;;;;;;6.63;3.73;;;;;;;;;;5053947;28;20471;-47
2023/07/14 03:05:32;;;;;;;11.53;4.60;;;18.20;93.80;;;;;;5052333;28;20962;-48
2023/07/14 03:08:00;;;;;;;5.87;4.13;;;18.10;93.80;;;;;;5053532;28;20475;-47
2023/07/14 03:10:28;;;;;;;5.33;3.50;;;;;;;;;;5053014;28;20448;-48
2023/07/14 03:12:54;;;;;;;4.97;3.73;;;18.30;94.00;;;;;;5053390;28;20899;-46
2023/07/14 03:15:21;;;;;;;5.77;4.33;;;;;;;;;;5052011;28;20459;-47
2023/07/14 03:17:48;;;;;;;5.60;3.80;;;;;;;;;;5053279;28;20963;-47
2023/07/14 03:20:15;;;;;;;4.63;3.80;;;;;;;;;;5052962;28;20436;-47
2023/07/14 03:22:43;;;;;;;5.50;4.30;;;;;;;;;;5053262;28;20461;-47
2023/07/14 03:25:11;;;;;;;7.57;4.87;;;;;;;;;;5051533;28;20448;-49
2023/07/14 03:27:38;;;;;;;4.97;4.03;;;18.40;94.40;;;;;;5051976;28;20481;-48
2023/07/14 03:30:05;;;;;;;5.70;3.53;;;;;;;;;;5051591;28;20984;-48
2023/07/14 03:32:32;;;;;;;12.57;4.20;;;;;;;;;;5051416;28;20573;-48
2023/07/14 03:34:59;;;;;;;6.17;4.50;;;;;;;;;;5052910;28;20436;-48
2023/07/14 03:37:26;;;;;;;6.17;4.03;;;18.50;94.60;;;;;;5051646;28;20544;-48
2023/07/14 03:39:53;;;;;;;4.63;4.13;;;;;;;;;;5052549;28;20437;-48
2023/07/14 03:42:21;;;;;;;6.17;4.03;;;;;;;;;;5052784;28;20454;-48
2023/07/14 03:44:48;;;;;;;5.10;3.97;;;;;;;;;;5052884;28;20858;-48
2023/07/14 03:47:15;;;;;;;7.77;4.40;;;18.60;94.80;;;;;;5052566;28;20459;-47
2023/07/14 03:49:42;;;;;;;6.87;4.70;;;;;;;;;;5051126;28;20464;-48
2023/07/14 03:52:09;;;;;;;6.97;4.10;;;18.60;94.90;;;;;;5052862;28;20468;-48
2023/07/14 03:54:36;;;;;;;4.67;3.83;;;;;;;;;;5051795;28;20448;-47
2023/07/14 03:57:05;;;;;;;7.47;4.63;;;;;;;;;;5052808;28;20444;-48
2023/07/14 03:59:33;;;;;;;5.10;4.40;;;;;;;;;;5052313;28;20437;-48
2023/07/14 04:02:01;;;;;;;5.47;4.37;;;18.70;94.90;;;;;;5052635;28;20877;-48
2023/07/14 04:04:29;;;;;;;5.47;3.90;;;18.90;94.90;;;;;;5052492;28;20444;-46
2023/07/14 04:06:57;;;;;;;7.00;3.80;;;18.80;94.80;;;;;;5050867;28;20437;-47
2023/07/14 04:09:24;;;;;;;7.43;3.83;;;18.90;94.90;;;;;;5052269;28;20459;-48
2023/07/14 04:11:51;;;;;;;5.37;4.67;;;18.90;94.80;;;;;;5052644;28;20457;-49
2023/07/14 04:14:17;;;;;;;6.57;4.23;;;19.00;94.70;;;;;;5052794;28;20441;-48
2023/07/14 04:16:45;;;;;;;8.90;3.80;;;19.10;94.60;;;;;;5052205;28;20437;-47
2023/07/14 04:19:12;;;;;;;5.30;4.23;;;19.20;94.50;;;;;;5052149;28;20442;-48
2023/07/14 04:21:39;;;;;;;6.10;4.43;;;;;;;;;;5052135;28;20485;-48
2023/07/14 04:24:06;;;;;;;5.37;3.77;;;19.40;94.30;;;;;;5052518;28;20437;-48
2023/07/14 04:26:33;;;;;;;4.70;3.90;;;;;;;;;;5051924;28;20441;-47
2023/07/14 04:29:00;;;;;;;9.33;4.03;;;19.60;93.90;;;;;;5051713;28;20481;-48
2023/07/14 04:31:28;;;;;;;6.77;3.87;;;19.70;93.70;;;;;;5051966;28;20434;-47
2023/07/14 04:33:56;;;;;;;4.30;3.83;;;19.80;93.50;;;;;;5052254;28;20533;-48
2023/07/14 04:36:23;;;;;;;5.60;3.77;;;;;;;;;;5052747;28;20427;-47
2023/07/14 04:39:01;;;;;;;4.40;3.30;;;;;;;;;;5052734;28;20471;-47
2023/07/14 04:41:28;;;;;;;5.23;3.70;;;;;;;;;;5052852;28;20503;-47
2023/07/14 04:43:55;;;;;;;5.07;3.80;;;;;;;;;;5052352;28;20435;-47
2023/07/14 04:46:22;;;;;;;7.40;4.23;;;;;;;;;;5052942;28;20434;-48
2023/07/14 04:48:50;;;;;;;5.10;4.00;;;;;;;;;;5052299;28;20492;-46
2023/07/14 04:51:18;;;;;;;4.37;3.13;;;;;;;;;;5051294;28;21014;-48
2023/07/14 04:53:45;;;;;;;6.93;4.00;;;;;;;;;;5051665;28;20824;-48
2023/07/14 04:56:12;;;;;;;7.50;3.87;;;;;;;;;;5051772;28;20438;-49
2023/07/14 04:58:39;;;;;;;4.80;3.40;;;;;;;;;;5051465;28;20438;-48
2023/07/14 05:01:06;;;;;;;5.47;4.50;;;20.60;91.80;;;;;;5051495;28;20528;-48
2023/07/14 05:03:33;;;;;;;9.90;4.50;;;20.60;91.60;;;;;;5050301;28;20479;-48
2023/07/14 05:06:00;;;;;;;5.07;3.50;;;;;;;;;;5050250;28;20443;-49
2023/07/14 05:08:28;;;;;;;4.90;3.30;;;;;;;;;;5051267;28;20489;-47
2023/07/14 05:10:54;;;;;;;4.90;3.63;;;20.90;91.00;;;;;;5050199;28;20452;-48
2023/07/14 05:13:21;;;;;;;5.43;3.67;;;21.00;91.00;;;;;;5051471;28;20458;-48
2023/07/14 05:15:48;;;;;;;7.03;3.90;;;;;;;;;;5051374;28;20947;-48
2023/07/14 05:18:16;;;;;;;8.37;3.90;;;;;;;;;;5051113;28;20523;-48
2023/07/14 05:20:43;;;;;;;5.33;3.40;;;21.20;90.50;;;;;;5050056;28;20857;-48
2023/07/14 05:23:11;;;;;;;4.80;3.10;;;;;;;;;;5051335;28;20455;-50
2023/07/14 05:25:39;;;;;;;4.93;3.23;;;;;;;;;;5051205;28;20436;-46
2023/07/14 05:28:06;;;;;;;6.33;3.63;;;;;;;;;;5051099;28;20479;-48
2023/07/14 05:30:34;;;;;;;4.70;3.30;;;;;;;;;;5051286;28;20433;-47
2023/07/14 05:33:01;;;;;;;6.10;3.87;;;21.40;90.00;;;;;;5049717;28;20483;-48
2023/07/14 05:35:28;;;;;;;4.77;3.47;;;;;;;;;;5051275;28;20925;-48
2023/07/14 05:37:56;;;;;;;8.93;4.10;;;;;;;;;;5051061;28;20452;-47
2023/07/14 05:40:23;;;;;;;5.07;3.63;;;21.60;89.60;;;;;;5050930;28;20532;-48
2023/07/14 05:42:52;;;;;;;6.53;3.87;;;;;;;;;;5050920;28;20960;-49
2023/07/14 05:45:19;;;;;;;6.30;3.70;;;;;;;;;;5051271;28;20540;-50
2023/07/14 05:47:47;;;;;;;7.57;3.20;;;;;;;;;;5050935;28;20441;-47
2023/07/14 05:50:14;;;;;;;6.10;3.30;;;;;;;;;;5049501;28;20495;-48
2023/07/14 05:52:41;;;;;;;4.43;3.10;;;;;;;;;;5051042;28;20551;-49
2023/07/14 05:55:09;;;;;;;6.80;3.43;;;;;;;;;;5052120;28;20780;-47
2023/07/14 05:57:36;;;;;;;8.83;3.03;;;22.10;87.30;;;;;;5054685;28;20442;-48
2023/07/14 06:00:11;;;;;;;5.77;2.90;;;;;;;;;;5054245;28;20473;-48
2023/07/14 06:02:40;;;;;;;6.90;3.43;;;22.30;86.50;;;;;;5054295;28;20437;-49
2023/07/14 06:05:07;;;;;;;5.87;3.33;;;;;;;;;;5054324;28;20941;-48
2023/07/14 06:07:34;;;;;;;5.10;3.87;;;;;;;;;;5054410;28;20453;-48
2023/07/14 06:10:01;;;;;;;4.50;3.53;;;;;;;;;;5054044;28;20480;-49
2023/07/14 06:12:28;;;;;;;8.13;3.00;;;22.80;84.20;;;;;;5054255;28;20457;-48
2023/07/14 06:14:55;;;;;;;3.80;3.00;;;;;;;;;;5054254;28;20441;-49
2023/07/14 06:17:23;;;;;;;7.10;2.97;;;;;;;;;;5054267;28;20461;-48
2023/07/14 06:19:50;;;;;;;6.20;2.83;;;22.80;83.20;;;;;;5053596;28;20457;-49
2023/07/14 06:22:17;;;;;;;7.30;3.40;;;;;;;;;;5053945;28;20465;-49
2023/07/14 06:24:44;;;;;;;4.50;2.97;;;23.00;83.20;;;;;;5053299;28;20440;-48
2023/07/14 06:27:10;;;;;;;10.80;3.30;;;23.00;82.90;;;;;;5053968;28;20442;-49
2023/07/14 06:29:37;;;;;;;7.27;3.87;;;;;;;;;;5053532;28;20960;-48
2023/07/14 06:32:05;;;;;;;6.50;3.40;;;;;;;;;;5074435;22;20491;-45
2023/07/14 06:34:33;;;;;;;6.20;3.53;;;;;;;;;;5034423;28;20443;-47
2023/07/14 06:37:00;;;;;;;5.23;2.73;;;;;;;;;;5033907;28;20429;-45
2023/07/14 06:39:27;;;;;;;4.53;2.40;;;;;;;;;;5033222;28;20436;-47
2023/07/14 06:41:54;;;;;;;4.17;2.90;;;;;;;;;;5033585;28;20793;-47
2023/07/14 06:44:25;;;;;;;5.53;2.80;;;23.30;79.30;;;;;;5032494;28;20448;-45
2023/07/14 06:46:52;;;;;;;4.20;2.73;;;;;;;;;;5033552;28;20490;-47
2023/07/14 06:49:19;;;;;;;6.67;2.87;;;23.40;79.20;;;;;;5033095;28;20478;-45
2023/07/14 06:51:47;;;;;;;4.57;3.07;;;23.40;79.00;;;;;;5033827;28;21011;-46
2023/07/14 06:54:14;;;;;;;3.27;2.97;;;;;;;;;;5033393;28;20428;-46
2023/07/14 06:56:41;;;;;;;4.93;2.63;;;;;;;;;;5033723;28;20433;-46
2023/07/14 06:59:08;;;;;;;13.10;3.03;;;;;;;;;;5034021;28;20457;-45
2023/07/14 07:01:35;;;;;;;5.10;2.90;;;;;;;;;;5034247;28;20786;-47
2023/07/14 07:04:02;;;;;;;5.50;3.03;;;;;;;;;;5034493;28;20446;-46
2023/07/14 07:06:29;;;;;;;6.17;3.30;;;;;;;;;;5034275;28;20474;-46
2023/07/14 07:08:58;;;;;;;5.60;3.07;;;;;;;;;;5033991;28;20485;-46
2023/07/14 07:11:25;;;;;;;8.70;3.33;;;;;;;;;;5035189;28;20451;-46
2023/07/14 07:13:51;;;;;;;5.60;2.80;;;23.50;77.70;;;;;;5033635;28;20496;-45
2023/07/14 07:16:18;;;;;;;9.63;3.47;;;;;;;;;;5031792;28;20447;-46
2023/07/14 07:18:45;;;;;;;4.10;2.90;;;;;;;;;;5033627;28;20446;-47
2023/07/14 07:21:12;;;;;;;6.27;4.30;;;;;;;;;;5033475;28;20437;-46
2023/07/14 07:23:40;;;;;;;7.23;3.60;;;;;;;;;;5034060;28;20449;-46
2023/07/14 07:26:08;;;;;;;6.47;3.10;;;;;;;;;;5032388;28;20440;-46
2023/07/14 07:28:36;;;;;;;6.47;2.87;;;;;;;;;;5030774;28;20481;-47
2023/07/14 07:31:09;;;;;;;4.10;2.93;;;;;;;;;;5032661;28;20437;-45
2023/07/14 07:33:36;;;;;;;4.40;2.70;;;;;;;;;;5032825;28;20491;-47
2023/07/14 07:36:14;;;;;;;4.37;3.07;;;;;;;;;;5032789;28;20445;-45
2023/07/14 07:38:41;;;;;;;4.83;2.60;;;;;;;;;;5032480;28;20459;-46
2023/07/14 07:41:10;;;;;;;4.30;2.87;;;;;;;;;;5032475;28;20429;-46
2023/07/14 07:43:38;;;;;;;6.87;3.27;;;;;;;;;;5032101;28;20468;-44
2023/07/14 07:46:05;;;;;;;6.30;4.60;;;;;;;;;;5032757;28;20438;-46
2023/07/14 07:48:32;;;;;;;6.03;2.87;;;;;;;;;;5031855;28;20477;-47
2023/07/14 07:50:59;;;;;;;7.67;2.90;;;;;;;;;;5032397;28;20443;-45
2023/07/14 07:53:26;;;;;;;4.40;2.80;;;;;;;;;;5033403;28;20968;-46
2023/07/14 07:55:53;;;;;;;3.30;2.20;;;23.70;73.30;;;;;;5032545;28;20793;-46
2023/07/14 07:58:24;;;;;;;4.80;2.20;;;;;;;;;;5031961;28;20444;-47
2023/07/14 08:00:52;;;;;;;3.70;3.10;;;23.90;72.70;;;;;;5032696;28;20451;-46
2023/07/14 08:03:19;;;;;;;3.27;2.37;;;;;;;;;;5032173;28;20560;-45
2023/07/14 08:05:46;;;;;;;2.80;2.30;;;;;;;;;;5031071;28;20648;-45
2023/07/14 08:08:13;;;;;;;4.60;2.40;;;;;;;;;;5031846;28;20437;-45
2023/07/14 08:10:42;;;;;;;10.00;2.80;;;;;;;;;;5032221;28;20442;-46
2023/07/14 08:13:09;;;;;;;6.50;2.87;;;23.90;71.00;;;;;;5031629;28;20541;-46
2023/07/14 08:15:39;;;;;;;3.40;2.30;;;;;;;;;;5032133;28;20438;-46
2023/07/14 08:18:06;;;;;;;4.97;2.80;;;;;;;;;;5031340;28;20527;-46
2023/07/14 08:20:33;;;;;;;3.13;2.20;;;;;;;;;;5031727;28;20463;-47
2023/07/14 08:23:02;;;;;;;5.43;2.70;;;;;;;;;;5032187;28;20457;-52
2023/07/14 08:25:30;;;;;;;5.23;2.53;;;24.00;71.30;;;;;;5032364;28;20438;-44
2023/07/14 08:28:02;;;;;;;5.27;2.60;;;24.10;71.20;;;;;;5032874;28;20441;-46
2023/07/14 08:30:30;;;;;;;4.73;2.47;;;;;;;;;;5032690;28;20481;-47
2023/07/14 08:32:58;;;;;;;5.80;2.53;;;;;;;;;;5033833;28;20469;-45
2023/07/14 08:35:26;;;;;;;5.40;2.63;;;;;;;;;;5034145;28;20453;-47
2023/07/14 08:37:53;;;;;;;12.80;3.97;;;;;;;;;;5034810;28;20434;-47
2023/07/14 08:40:25;;;;;;;3.67;2.73;;;24.40;70.00;;;;;;5032694;28;20450;-46
2023/07/14 08:42:56;;;;;;;4.17;2.30;;;;;;;;;;5033300;28;20454;-47
2023/07/14 08:45:30;;;;;;;5.77;3.80;;;;;;;;;;5033591;28;20447;-48
2023/07/14 08:48:04;;;;;;;5.40;2.57;;;;;;;;;;5034250;28;20438;-47
2023/07/14 08:50:31;;;;;;;3.07;2.10;;;;;;;;;;5033852;28;20481;-47
2023/07/14 08:53:03;;;;;;;6.50;4.67;;;;;;;;;;5034198;28;20482;-45
2023/07/14 08:55:34;;;;;;;3.80;2.40;;;24.70;68.10;;;;;;5033393;28;20922;-46
2023/07/14 08:58:04;;;;;;;5.93;2.60;;;;;;;;;;5032059;28;20436;-47
2023/07/14 09:00:36;;;;;;;4.20;2.43;;;25.00;67.30;;;;;;5033132;28;20572;-45
2023/07/14 09:03:08;;;;;;;5.13;3.13;;;;;;;;;;5032581;28;20491;-47
2023/07/14 09:05:36;;;;;;;5.37;2.50;;;;;;;;;;5032034;28;20516;-46
2023/07/14 09:08:04;;;;;;;6.43;2.47;;;;;;;;;;5031298;28;20409;-50
2023/07/14 09:10:36;;;;;;;3.33;2.53;;;;;;;;;;5031472;28;20539;-46
2023/07/14 09:13:08;;;;;;;6.83;3.00;;;;;;;;;;5031614;28;20447;-47
2023/07/14 09:15:36;;;;;;;4.30;2.70;;;;;;;;;;5031417;28;20472;-45
2023/07/14 09:18:28;;;;;;;4.87;2.47;;;25.50;63.80;;;;;;5030300;28;20549;-45
2023/07/14 09:21:05;;;;;;;4.53;2.50;;;;;;;;;;5032203;28;20534;-46
2023/07/14 09:23:57;;;;;;;3.37;2.17;;;25.60;63.20;;;;;;5031842;28;20535;-47
2023/07/14 09:26:29;;;;;;;7.23;3.17;;;;;;;;;;5031124;28;20443;-47
2023/07/14 09:28:56;;;;;;;5.10;2.20;;;;;;;;;;5032346;28;20439;-47
2023/07/14 09:31:37;;;;;;;6.23;2.47;;;25.80;61.70;;;;;;5037059;28;20435;-45
2023/07/14 09:34:12;;;;;;;5.33;2.43;;;25.70;61.70;;;;;;5036736;28;20943;-46
2023/07/14 09:36:39;;;;;;;4.27;2.20;;;25.70;61.70;;;;;;5036781;28;20454;-46
2023/07/14 09:39:11;;;;;;;3.20;2.10;;;;;;;;;;5035679;28;20435;-47
2023/07/14 09:41:38;;;;;;;3.87;2.50;;;;;;;;;;5036505;28;20435;-46
2023/07/14 09:44:06;;;;;;;5.83;2.30;;;;;;;;;;5036172;28;20440;-48
2023/07/14 09:46:39;;;;;;;3.40;2.03;;;26.00;60.30;;;;;;5028754;28;20805;-46
2023/07/14 09:49:12;;;;;;;3.50;1.93;;;;;;;;;;5028764;28;21025;-46
2023/07/14 09:51:40;;;;;;;4.60;2.00;;;;;;;;;;5033015;28;20463;-45
2023/07/14 09:54:08;;;;;;;26.00;3.77;;;;;;;;;;5027900;28;20448;-47
2023/07/14 09:56:37;;;;;;;4.40;2.83;;;;;;;;;;5016552;28;20957;-47
2023/07/14 09:59:07;;;;;;;6.77;2.43;;;;;;;;;;5028792;28;20449;-46
2023/07/14 10:01:35;;;;;;;4.77;2.10;;;;;;;;;;5035657;28;20446;-45
2023/07/14 10:04:14;;;;;;;3.00;2.10;;;26.40;59.10;;;;;;5035656;28;20459;-46
2023/07/14 10:06:42;;;;;;;3.83;1.90;;;;;;;;;;5036356;28;20461;-46
2023/07/14 10:09:11;;;;;;;3.93;1.83;;;;;;;;;;5036026;28;20455;-47
2023/07/14 10:11:41;;;;;;;6.13;2.10;;;26.40;58.20;;;;;;5034984;28;20447;-47
2023/07/14 10:14:19;;;;;;;5.23;2.13;;;;;;;;;;5051228;28;20453;-46
2023/07/14 10:16:46;;;;;;;16.37;3.60;;;;;;;;;;5037566;28;20475;-47
2023/07/14 10:19:16;;;;;;;11.53;2.10;;;;;;;;;;5049153;28;20486;-47
2023/07/14 10:21:51;;;;;;;17.07;3.00;;;;;;;;;;5034038;28;20440;-47
2023/07/14 10:24:19;;;;;;;6.70;4.73;;;;;;;;;;5033105;28;20445;-47
2023/07/14 10:26:51;;;;;;;5.40;1.80;;;;;;;;;;5033039;28;20526;-46
2023/07/14 10:29:19;;;;;;;3.60;2.40;;;;;;;;;;5031727;28;20478;-47
2023/07/14 10:31:48;;;;;;;5.70;2.43;;;;;;;;;;5030669;28;20487;-48
2023/07/14 10:34:23;;;;;;;4.53;2.40;;;;;;;;;;5032214;28;20518;-48
2023/07/14 10:36:53;;;;;;;29.30;3.47;;;;;;;;;;5033546;28;20672;-47
2023/07/14 10:39:24;;;;;;;4.00;1.90;;;;;;;;;;5031222;28;20452;-48
2023/07/14 10:41:52;;;;;;;7.40;2.57;;;26.20;57.80;;;;;;5032362;28;20462;-47
2023/07/14 10:44:24;;;;;;;5.80;2.40;;;;;;;;;;5031705;28;20524;-46
2023/07/14 10:46:53;;;;;;;3.60;2.53;;;;;;;;;;5033409;28;20961;-47
2023/07/14 10:49:27;;;;;;;8.90;3.10;;;;;;;;;;5033765;28;20490;-48
2023/07/14 10:51:57;;;;;;;6.40;2.50;;;;;;;;;;5033635;28;20432;-46
2023/07/14 10:54:35;;;;;;;6.70;2.50;;;;;;;;;;5033955;28;20446;-48
2023/07/14 10:57:04;;;;;;;8.03;2.70;;;;;;;;;;5033099;28;20437;-46
2023/07/14 10:59:35;;;;;;;3.80;2.40;;;26.40;57.20;;;;;;5033305;28;20547;-47
2023/07/14 11:02:07;;;;;;;4.10;2.50;;;;;;;;;;5033390;28;20458;-48
2023/07/14 11:04:37;;;;;;;4.47;2.40;;;;;;;;;;5033083;28;21134;-46
2023/07/14 11:07:06;;;;;;;5.00;2.00;;;26.40;57.40;;;;;;5033673;28;20432;-46
2023/07/14 11:09:34;;;;;;;8.33;2.63;;;;;;;;;;5033648;28;20490;-46
2023/07/14 11:12:08;;;;;;;4.80;2.57;;;;;;;;;;5033193;28;20968;-46
2023/07/14 11:14:43;;;;;;;4.53;2.57;;;;;;;;;;5033123;28;20833;-45
2023/07/14 11:17:16;;;;;;;3.83;2.10;;;;;;;;;;5044014;28;20441;-47
2023/07/14 11:19:49;;;;;;;4.73;2.20;;;;;;;;;;5045279;28;20443;-47
2023/07/14 11:22:19;;;;;;;4.23;2.47;;;;;;;;;;5034769;28;20478;-45
2023/07/14 11:24:56;;;;;;;4.10;2.43;;;;;;;;;;5034721;28;20458;-47
2023/07/14 11:27:30;;;;;;;2.60;2.10;;;;;;;;;;5033331;28;20442;-47
2023/07/14 11:30:00;;;;;;;4.33;2.27;;;;;;;;;;5032569;28;20471;-47
2023/07/14 11:32:32;;;;;;;3.87;2.40;;;;;;;;;;5032819;28;20466;-48
2023/07/14 11:35:05;;;;;;;6.57;2.43;;;;;;;;;;5031087;28;20500;-47
2023/07/14 11:37:41;;;;;;;3.50;2.13;;;;;;;;;;5030734;28;20489;-47
2023/07/14 11:40:13;;;;;;;4.10;1.93;;;;;;;;;;5029406;28;20546;-47
2023/07/14 11:42:41;;;;;;;4.93;2.50;;;;;;;;;;5031401;28;20868;-48
2023/07/14 11:45:13;;;;;;;3.73;2.23;;;;;;;;;;5031450;28;20916;-47
2023/07/14 11:47:42;;;;;;;4.63;2.60;;;;;;;;;;5030811;28;20443;-46
2023/07/14 11:50:24;;;;;;;5.70;3.10;;;;;;;;;;5032030;28;20979;-47
2023/07/14 11:53:01;;;;;;;2.83;2.03;;;;;;;;;;5032375;28;20531;-49
2023/07/14 11:55:29;;;;;;;5.53;2.77;;;;;;;;;;5032249;28;20972;-49
2023/07/14 11:58:06;;;;;;;7.13;2.23;;;;;;;;;;5031737;28;20440;-48
2023/07/14 12:00:38;;;;;;;2.90;2.40;;;;;;;;;;5032280;28;20465;-49
2023/07/14 12:03:09;;;;;;;3.43;2.87;;;26.70;53.40;;;;;;5031586;28;20445;-48
2023/07/14 12:05:39;;;;;;;3.37;2.50;;;;;;;;;;5031973;28;20838;-48
2023/07/14 12:08:11;;;;;;;3.10;2.50;;;;;;;;;;5030116;28;20559;-47
2023/07/14 12:10:46;;;;;;;4.40;2.80;;;;;;;;;;5032004;28;20922;-49
2023/07/14 12:13:21;;;;;;;5.63;2.67;;;;;;;;;;5031972;28;20451;-49
2023/07/14 12:15:50;;;;;;;3.40;2.60;;;;;;;;;;5030891;28;20455;-48
2023/07/14 12:18:28;;;;;;;2.93;2.20;;;;;;;;;;5031255;28;20441;-48
2023/07/14 12:21:10;;;;;;;5.17;2.90;;;;;;;;;;5031179;28;20444;-49
2023/07/14 12:23:39;;;;;;;3.70;2.80;;;;;;;;;;5031707;28;20954;-50
2023/07/14 12:26:12;;;;;;;5.07;3.33;;;26.90;53.60;;;;;;5031721;28;20942;-48
2023/07/14 12:28:39;;;;;;;6.43;4.00;;;;;;;;;;5031239;28;20437;-49
2023/07/14 12:31:07;;;;;;;6.03;3.10;;;;;;;;;;5030445;28;20467;-48
2023/07/14 12:33:34;;;;;;;7.13;3.10;;;;;;;;;;5029744;28;20479;-48
2023/07/14 12:36:03;;;;;;;5.37;2.50;;;;;;;;;;5030223;28;20440;-49
2023/07/14 12:38:31;;;;;;;3.73;2.50;;;;;;;;;;5030977;28;20454;-49
2023/07/14 12:41:02;;;;;;;3.53;3.23;;;;;;;;;;5031176;28;20479;-49
2023/07/14 12:43:34;;;;;;;4.87;3.03;;;;;;;;;;5031085;28;20462;-49
2023/07/14 12:46:02;;;;;;;6.23;3.60;;;;;;;;;;5031370;28;20435;-48
2023/07/14 12:48:31;;;;;;;4.33;3.00;;;;;;;;;;5030662;28;20431;-50
2023/07/14 12:50:58;;;;;;;3.27;2.70;;;;;;;;;;5031408;28;20481;-49
2023/07/14 12:53:30;;;;;;;4.17;2.87;;;;;;;;;;5031331;28;20450;-49
2023/07/14 12:56:07;;;;;;;5.73;3.30;;;27.10;52.10;;;;;;5031354;28;20983;-50
2023/07/14 12:58:34;;;;;;;4.20;2.80;;;;;;;;;;5031053;28;20438;-49
2023/07/14 13:01:01;;;;;;;5.93;3.30;;;;;;;;;;5031810;28;20451;-50
2023/07/14 13:03:28;;;;;;;3.60;2.80;;;;;;;;;;5031077;28;20451;-48
2023/07/14 13:05:55;;;;;;;4.43;2.90;;;;;;;;;;5034958;28;20893;-50
2023/07/14 13:08:25;;;;;;;5.97;3.40;;;;;;;;;;5035111;28;20431;-49
2023/07/14 13:10:53;;;;;;;4.87;3.83;;;;;;;;;;5034817;28;20476;-49
2023/07/14 13:13:22;;;;;;;4.80;3.27;;;;;;;;;;5035552;28;20458;-46
2023/07/14 13:15:51;;;;;;;5.30;3.80;;;;;;;;;;5035506;28;20436;-48
2023/07/14 13:18:25;;;;;;;6.17;3.73;;;27.10;51.50;;;;;;5034938;28;20432;-47
2023/07/14 13:20:56;;;;;;;5.43;3.30;;;;;;;;;;5034871;28;20443;-48
2023/07/14 13:23:25;;;;;;;5.30;3.90;;;;;;;;;;5035559;28;20968;-48
2023/07/14 13:25:55;;;;;;;5.27;3.20;;;;;;;;;;5035278;28;20526;-47
2023/07/14 13:28:28;;;;;;;5.73;3.50;;;;;;;;;;5033859;28;20439;-47
2023/07/14 13:30:55;;;;;;;6.50;3.70;;;;;;;;;;5035118;28;20471;-49
2023/07/14 13:33:25;;;;;;;3.70;3.07;;;;;;;;;;5035367;28;20442;-48
2023/07/14 13:35:56;;;;;;;5.10;3.37;;;27.50;51.60;;;;;;5035148;28;20585;-47
2023/07/14 13:38:23;;;;;;;4.03;3.13;;;;;;;;;;5034659;28;20437;-48
2023/07/14 13:40:52;;;;;;;4.93;3.33;;;;;;;;;;5034735;28;20428;-48
2023/07/14 13:43:21;;;;;;;4.27;3.63;;;27.90;51.00;;;;;;5035471;28;20522;-48
2023/07/14 13:45:58;;;;;;;3.70;3.30;;;;;;;;;;5032662;28;20921;-48
2023/07/14 13:48:30;;;;;;;5.10;3.80;;;;;;;;;;5034281;28;20522;-47
2023/07/14 13:50:57;;;;;;;4.10;2.97;;;;;;;;;;5035368;28;20474;-46
2023/07/14 13:53:24;;;;;;;4.90;3.90;;;;;;;;;;5035681;28;20462;-46
2023/07/14 13:55:51;;;;;;;3.63;2.90;;;;;;;;;;5035544;28;20816;-47
2023/07/14 13:58:18;;;;;;;6.10;3.57;;;;;;;;;;5035777;28;20740;-47
2023/07/14 14:00:46;;;;;;;4.23;3.13;;;;;;;;;;5035547;28;20959;-47
2023/07/14 14:03:15;;;;;;;4.80;3.10;;;27.80;50.10;;;;;;5036108;28;20460;-47
2023/07/14 14:05:43;;;;;;;3.93;3.17;;;;;;;;;;5034748;28;20439;-48
2023/07/14 14:08:11;;;;;;;6.33;3.87;;;;;;;;;;5033441;28;20446;-48
2023/07/14 14:10:38;;;;;;;4.73;3.23;;;;;;;;;;5035657;28;20955;-46
2023/07/14 14:13:05;;;;;;;4.80;3.40;;;;;;;;;;5032735;28;20476;-47
2023/07/14 14:15:33;;;;;;;4.03;3.03;;;;;;;;;;5033389;28;20443;-46
2023/07/14 14:18:03;;;;;;;4.93;3.70;;;;;;;;;;5034761;28;20439;-47